Time;durP1;ratioP1;P1;durP2;ratioP2;P2;SDS_P1;SDS_P2;PMS_P1;PMS_P2;Temp;Humidity;BMP_temperature;BMP_pressure;BME280_temperature;BME280_humidity;BME280_pressure;Samples;Min_cycle;Max_cycle;Signal;HPM_P1;HPM_P2
2023/04/29 00:01:34;;;;;;;;;;;;;;;;;;5045862;28;20028;-79
2023/04/29 00:04:00;;;;;;;4.07;1.85;;;;;;;;;;5056696;28;19909;-79
2023/04/29 00:06:27;;;;;;;;;;;;;;;;;;5065060;28;20060;-79
2023/04/29 00:08:52;;;;;;;3.33;1.85;;;;;;;;;;5050577;28;19952;-79
2023/04/29 00:11:17;;;;;;;;;;;;;;;;;;5051324;28;20091;-79
2023/04/29 00:13:43;;;;;;;2.38;1.60;;;;;;;;;;5050462;28;19916;-79
2023/04/29 00:16:12;;;;;;;6.53;1.67;;;;;;;;;;5049375;28;20040;-79
2023/04/29 00:18:38;;;;;;;4.20;2.28;;;;;;;;;;5048967;28;20037;-79
2023/04/29 00:21:06;;;;;;;;;;;;;;;;;;5051550;28;20032;-79
2023/04/29 00:23:32;;;;;;;3.20;1.83;;;;;;;;;;5050413;28;20437;-79
2023/04/29 00:25:57;;;;;;;;;;;;;;;;;;5049890;28;20044;-79
2023/04/29 00:28:26;;;;;;;3.63;1.75;;;;;;;;;;5051762;28;19908;-79
2023/04/29 00:30:52;;;;;;;;;;;;;;;;;;5033392;28;20029;-79
2023/04/29 00:33:18;;;;;;;3.10;1.85;;;;;;;;;;5051241;28;20359;-79
2023/04/29 00:35:43;;;;;;;;;;;;;;;;;;5032735;28;20040;-80
2023/04/29 00:38:09;;;;;;;3.28;2.10;;;;;;;;;;5050148;28;19909;-80
2023/04/29 00:40:35;;;;;;;2.83;1.85;;;;;;;;;;5049469;28;20403;-81
2023/04/29 00:43:00;;;;;;;;;;;;;;;;;;5050557;28;20129;-80
2023/04/29 00:45:26;;;;;;;3.03;1.90;;;;;;;;;;5049116;28;19912;-80
2023/04/29 00:47:52;;;;;;;3.90;1.80;;;;;;;;;;5049607;28;20487;-80
2023/04/29 00:50:17;;;;;;;;;;;;;;;;;;5051318;28;20080;-80
2023/04/29 00:52:43;;;;;;;2.17;1.60;;;;;;;;;;5058065;28;19915;-80
2023/04/29 00:55:08;;;;;;;;;;;;;;;;;;5032674;28;20036;-80
2023/04/29 00:57:34;;;;;;;2.92;1.95;;;;;;;;;;5053077;28;19909;-80
2023/04/29 00:59:59;;;;;;;3.35;1.90;;;;;;;;;;5031950;28;20090;-80
2023/04/29 01:02:25;;;;;;;;;;;;;;;;;;5032596;28;20079;-80
2023/04/29 01:04:51;;;;;;;2.70;1.90;;;;;;;;;;5055007;28;19913;-80
2023/04/29 01:07:17;;;;;;;;;;;;;;;;;;5032592;28;20028;-80
2023/04/29 01:09:46;;;;;;;3.53;1.90;;;;;;;;;;5059800;28;19919;-79
2023/04/29 01:12:29;;;;;;;3.35;2.00;;;;;;;;;;5039113;28;20037;-79
2023/04/29 01:15:18;;;;;;;2.67;1.85;;;;;;;;;;5051941;28;20179;-80
2023/04/29 01:17:45;;;;;;;3.53;2.00;;;;;;;;;;5050852;28;20040;-80
2023/04/29 01:20:11;;;;;;;2.40;1.30;;;;;;;;;;5050186;28;20486;-80
2023/04/29 01:22:38;;;;;;;;;;;;;;;;;;5043532;28;20033;-80
2023/04/29 01:25:04;;;;;;;3.30;1.80;;;;;;;;;;5049063;28;20314;-80
2023/04/29 01:27:33;;;;;;;2.53;1.60;;;;;;;;;;5048350;28;20051;-79
2023/04/29 01:30:04;;;;;;;2.10;1.40;;;;;;;;;;5051340;28;20032;-80
2023/04/29 01:32:29;;;;;;;;;;;;;;;;;;5052468;28;20033;-79
2023/04/29 01:34:55;;;;;;;2.60;1.65;;;;;;;;;;5052241;28;19935;-80
2023/04/29 01:37:23;;;;;;;3.47;1.88;;;;;;;;;;5051980;28;20033;-80
2023/04/29 01:40:08;;;;;;;4.22;1.90;;;;;;;;;;5035639;28;20476;-80
2023/04/29 01:42:44;;;;;;;2.63;1.70;;;;;;;;;;5068907;28;20033;-80
2023/04/29 01:45:15;;;;;;;2.60;1.67;;;;;;;;;;5037284;28;20475;-80
2023/04/29 01:47:40;;;;;;;3.95;2.22;;;;;;;;;;5052491;28;20735;-80
2023/04/29 01:50:31;;;;;;;2.92;1.90;;;;;;;;;;5053260;28;20051;-79
2023/04/29 01:53:06;;;;;;;3.83;1.92;;;;;;;;;;5036686;28;20404;-79
2023/04/29 01:55:33;;;;;;;2.70;1.80;;;;;;;;;;5051400;28;20037;-79
2023/04/29 01:58:14;;;;;;;3.10;2.05;;;;;;;;;;5051664;28;20131;-79
2023/04/29 02:00:57;;;;;;;2.80;1.92;;;;;;;;;;5038093;28;20025;-78
2023/04/29 02:03:25;;;;;;;4.93;1.88;;;;;;;;;;5035887;28;20028;-79
2023/04/29 02:05:54;;;;;;;2.97;1.90;;;;;;;;;;5032316;28;20407;-79
2023/04/29 02:08:19;;;;;;;;;;;;;;;;;;5052550;28;20506;-78
2023/04/29 02:10:55;;;;;;;3.67;2.00;;;;;;;;;;5052340;28;20007;-79
2023/04/29 02:13:30;;;;;;;4.45;2.05;;;;;;;;;;5021989;28;20507;-79
2023/04/29 02:15:56;;;;;;;2.80;1.92;;;;;;;;;;5036488;28;20045;-78
2023/04/29 02:18:22;;;;;;;;;;;;;;;;;;5036534;28;20044;-79
2023/04/29 02:20:49;;;;;;;3.30;2.17;;;;;;;;;;5052989;28;20386;-79
2023/04/29 02:23:14;;;;;;;5.03;2.08;;;;;;;;;;5036648;28;20527;-80
2023/04/29 02:25:40;;;;;;;;;;;;;;;;;;5046670;28;20174;-80
2023/04/29 02:28:06;;;;;;;2.95;1.90;;;;;;;;;;5067093;28;19908;-78
2023/04/29 02:30:31;;;;;;;;;;;;;;;;;;5040549;28;20044;-78
2023/04/29 02:32:57;;;;;;;2.58;1.98;;;;;;;;;;5051410;28;19915;-80
2023/04/29 02:35:23;;;;;;;;;;;;;;;;;;5052313;28;20127;-80
2023/04/29 02:37:48;;;;;;;4.38;2.60;;;;;;;;;;5053333;28;19908;-80
2023/04/29 02:40:14;;;;;;;3.10;2.10;;;;;;;;;;5052556;28;20594;-80
2023/04/29 02:42:39;;;;;;;;;;;;;;;;;;5033924;28;20074;-79
2023/04/29 02:45:05;;;;;;;4.40;2.50;;;;;;;;;;5052204;28;19912;-79
2023/04/29 02:47:30;;;;;;;;;;;;;;;;;;5051418;28;20020;-80
2023/04/29 02:49:56;;;;;;;3.58;2.60;;;;;;;;;;5050947;28;19912;-80
2023/04/29 02:52:21;;;;;;;;;;;;;;;;;;5051320;28;20029;-80
2023/04/29 02:54:47;;;;;;;3.83;2.85;;;;;;;;;;5051602;28;19913;-80
2023/04/29 02:57:12;;;;;;;;;;;;;;;;;;5059686;28;20384;-80
2023/04/29 02:59:38;;;;;;;3.38;2.40;;;;;;;;;;5068821;28;19912;-79
2023/04/29 03:02:03;;;;;;;;;;;;;;;;;;5062684;28;20116;-80
2023/04/29 03:04:29;;;;;;;9.00;2.30;;;;;;;;;;5063080;28;19939;-80
2023/04/29 03:06:57;;;;;;;4.85;3.28;;;;;;;;;;5052088;28;20438;-80
2023/04/29 03:09:25;;;;;;;3.38;2.35;;;;;;;;;;5050870;28;20036;-80
2023/04/29 03:11:50;;;;;;;;;;;;;;;;;;5069623;28;20220;-83
2023/04/29 03:14:16;;;;;;;3.15;2.58;;;;;;;;;;5067706;28;20008;-79
2023/04/29 03:16:41;;;;;;;3.55;2.35;;;;;;;;;;5058089;28;20472;-78
2023/04/29 03:19:07;;;;;;;;;;;;;;;;;;5068967;28;20025;-79
2023/04/29 03:21:32;;;;;;;3.80;2.20;;;;;;;;;;5052245;28;19908;-80
2023/04/29 03:23:58;;;;;;;;;;;;;;;;;;5068123;28;20036;-80
2023/04/29 03:26:29;;;;;;;4.03;2.00;;;;;;;;;;5068538;28;19931;-80
2023/04/29 03:28:55;;;;;;;;;;;;;;;;;;5049078;28;20037;-80
2023/04/29 03:31:22;;;;;;;4.05;2.10;;;;;;;;;;5052086;28;19995;-80
2023/04/29 03:33:47;;;;;;;4.35;2.25;;;;;;;;;;5046774;28;20479;-80
2023/04/29 03:36:14;;;;;;;;;;;;;;;;;;5051367;28;20109;-80
2023/04/29 03:38:49;;;;;;;3.80;2.42;;;;;;;;;;5052785;28;20063;-80
2023/04/29 03:41:14;;;;;;;;;;;;;;;;;;5031193;28;20064;-80
2023/04/29 03:43:40;;;;;;;3.08;2.20;;;;;;;;;;5070993;28;19916;-80
2023/04/29 03:46:06;;;;;;;3.83;2.03;;;;;;;;;;5049500;28;20044;-80
2023/04/29 03:48:32;;;;;;;4.57;2.22;;;;;;;;;;5068653;28;20040;-80
2023/04/29 03:50:59;;;;;;;3.35;2.13;;;;;;;;;;5037756;28;20043;-79
2023/04/29 03:53:25;;;;;;;;;;;;;;;;;;5049887;28;20024;-79
2023/04/29 03:55:50;;;;;;;3.20;2.22;;;;;;;;;;5065696;28;19931;-79
2023/04/29 03:58:16;;;;;;;;;;;;;;;;;;5051143;28;20502;-80
2023/04/29 04:00:42;;;;;;;4.32;2.60;;;;;;;;;;5060737;28;19947;-80
2023/04/29 04:03:14;;;;;;;5.80;3.22;;;;;;;;;;5033937;28;20442;-81
2023/04/29 04:05:39;;;;;;;;;;;;;;;;;;5034173;28;20048;-80
2023/04/29 04:08:11;;;;;;;4.22;1.60;;;;;;;;;;5050086;28;19916;-80
2023/04/29 04:11:03;;;;;;;3.20;2.13;;;;;;;;;;5042173;28;20040;-80
2023/04/29 04:13:42;;;;;;;3.08;2.22;;;;;;;;;;5035812;28;20044;-81
2023/04/29 04:16:10;;;;;;;3.88;2.00;;;;;;;;;;5033620;28;20037;-80
2023/04/29 04:18:37;;;;;;;3.20;2.25;;;;;;;;;;5050266;28;20414;-79
2023/04/29 04:21:06;;;;;;;4.82;2.40;;;;;;;;;;5050592;28;20025;-80
2023/04/29 04:23:32;;;;;;;3.13;2.08;;;;;;;;;;5049617;28;20044;-79
2023/04/29 04:25:59;;;;;;;4.55;2.40;;;;;;;;;;5044608;28;20055;-80
2023/04/29 04:28:43;;;;;;;2.90;2.03;;;;;;;;;;5068310;28;20135;-81
2023/04/29 04:31:15;;;;;;;3.30;2.00;;;;;;;;;;5048289;28;20586;-80
2023/04/29 04:33:41;;;;;;;;;;;;;;;;;;5050896;28;20124;-81
2023/04/29 04:36:07;;;;;;;2.67;1.70;;;;;;;;;;5049974;28;19952;-79
2023/04/29 04:38:33;;;;;;;;;;;;;;;;;;5050705;28;20479;-79
2023/04/29 04:41:00;;;;;;;4.78;2.58;;;;;;;;;;5049687;28;19975;-79
2023/04/29 04:43:31;;;;;;;4.07;2.40;;;;;;;;;;5050618;28;20032;-80
2023/04/29 04:45:57;;;;;;;5.28;2.70;;;;;;;;;;5045277;28;20040;-79
2023/04/29 04:48:23;;;;;;;;;;;;;;;;;;5057280;28;20403;-79
2023/04/29 04:50:50;;;;;;;3.45;2.35;;;;;;;;;;5052594;28;20006;-79
2023/04/29 04:53:15;;;;;;;;;;;;;;;;;;5049566;28;20108;-79
2023/04/29 04:55:53;;;;;;;3.38;2.00;;;;;;;;;;5048354;28;20331;-79
2023/04/29 04:58:19;;;;;;;;;;;;;;;;;;5049646;28;20033;-79
2023/04/29 05:00:44;;;;;;;3.30;2.30;;;;;;;;;;5048832;28;19958;-79
2023/04/29 05:03:11;;;;;;;3.35;2.42;;;;;;;;;;5041805;28;20453;-79
2023/04/29 05:05:36;;;;;;;;;;;;;;;;;;5057325;28;20020;-79
2023/04/29 05:08:02;;;;;;;3.00;1.95;;;;;;;;;;5071039;28;19916;-80
2023/04/29 05:10:35;;;;;;;3.40;2.20;;;;;;;;;;5038084;28;20021;-80
2023/04/29 05:13:01;;;;;;;3.88;2.10;;;;;;;;;;5052797;28;20131;-79
2023/04/29 05:15:26;;;;;;;;;;;;;;;;;;5036971;28;20123;-80
2023/04/29 05:17:54;;;;;;;3.47;2.20;;;;;;;;;;5036729;28;20367;-80
2023/04/29 05:20:21;;;;;;;3.85;1.77;;;;;;;;;;5053428;28;20561;-80
2023/04/29 05:22:46;;;;;;;;;;;;;;;;;;5036635;28;20115;-80
2023/04/29 05:25:12;;;;;;;6.40;2.10;;;;;;;;;;5052248;28;19916;-81
2023/04/29 05:27:39;;;;;;;3.15;1.88;;;;;;;;;;5036655;28;20032;-81
2023/04/29 05:30:08;;;;;;;3.53;2.10;;;;;;;;;;5033206;28;20504;-81
2023/04/29 05:32:34;;;;;;;;;;;;;;;;;;5054320;28;20060;-79
2023/04/29 05:35:00;;;;;;;2.97;1.83;;;;;;;;;;5054503;28;19912;-79
2023/04/29 05:37:29;;;;;;;3.13;2.00;;;;;;;;;;5056458;28;20403;-79
2023/04/29 05:40:08;;;;;;;4.80;2.22;;;;;;;;;;5040828;28;20032;-82
2023/04/29 05:42:34;;;;;;;4.32;2.70;;;;;;;;;;5044711;28;20032;-78
2023/04/29 05:45:00;;;;;;;3.00;1.83;;;;;;;;;;5060651;28;20399;-81
2023/04/29 05:47:25;;;;;;;;;;;;;;;;;;5041043;28;20029;-81
2023/04/29 05:49:51;;;;;;;3.58;2.33;;;;;;;;;;5056000;28;19908;-81
2023/04/29 05:52:16;;;;;;;;;;;;;;;;;;5053484;28;20037;-80
2023/04/29 05:54:45;;;;;;;4.30;2.70;;;;;;;;;;5054590;28;20359;-80
2023/04/29 05:57:11;;;;;;;2.60;1.90;;;;;;;;;;5055421;28;20124;-81
2023/04/29 05:59:38;;;;;;;3.47;1.90;;;;;;;;;;5022365;28;20553;-80
2023/04/29 06:02:04;;;;;;;;;;;;;;;;;;5038868;28;20036;-80
2023/04/29 06:04:29;;;;;;;3.63;1.70;;;;;;;;;;5054586;28;19966;-81
2023/04/29 06:07:21;;;;;;;2.53;1.70;;;;;;;;;;5023786;28;20041;-79
2023/04/29 06:09:49;;;;;;;2.75;2.03;;;;;;;;;;5040621;28;20032;-80
2023/04/29 06:12:15;;;;;;;;;;;;;;;;;;5036829;28;20552;-81
2023/04/29 06:14:42;;;;;;;6.63;2.60;;;;;;;;;;5066452;28;19920;-81
2023/04/29 06:17:08;;;;;;;;;;;;;;;;;;5056333;28;20416;-81
2023/04/29 06:20:00;;;;;;;2.65;1.42;;;;;;;;;;5054217;28;20390;-81
2023/04/29 06:22:26;;;;;;;2.78;1.70;;;;;;;;;;5058448;28;20496;-80
2023/04/29 06:24:53;;;;;;;4.68;1.83;;;;;;;;;;5054273;28;20017;-80
2023/04/29 06:27:25;;;;;;;4.57;1.98;;;;;;;;;;5035203;28;20037;-81
2023/04/29 06:29:51;;;;;;;;;;;;;;;;;;5035298;28;20110;-81
2023/04/29 06:32:16;;;;;;;2.60;1.95;;;;;;;;;;5051047;28;20325;-81
2023/04/29 06:34:44;;;;;;;6.65;2.08;;;;;;;;;;5045785;28;20028;-80
2023/04/29 06:37:30;;;;;;;2.53;1.70;;;;;;;;;;5034803;28;20478;-79
2023/04/29 06:40:25;;;;;;;2.95;1.58;;;;;;;;;;5051592;28;20064;-81
2023/04/29 06:43:03;;;;;;;3.13;1.77;;;;;;;;;;5036212;28;20420;-80
2023/04/29 06:45:52;;;;;;;2.00;1.40;;;;;;;;;;5022895;28;20025;-80
2023/04/29 06:48:31;;;;;;;3.05;1.50;;;;;;;;;;5051493;28;20071;-80
2023/04/29 06:50:57;;;;;;;;;;;;;;;;;;5035383;28;20052;-80
2023/04/29 06:53:22;;;;;;;3.35;1.67;;;;;;;;;;5052360;28;19944;-80
2023/04/29 06:55:48;;;;;;;;;;;;;;;;;;5034948;28;20036;-80
2023/04/29 06:58:13;;;;;;;3.17;1.80;;;;;;;;;;5051847;28;19948;-80
2023/04/29 07:00:39;;;;;;;;;;;;;;;;;;5034906;28;20482;-81
2023/04/29 07:03:04;;;;;;;5.82;1.80;;;;;;;;;;5050580;28;19917;-81
2023/04/29 07:05:30;;;;;;;;;;;;;;;;;;5034994;28;20132;-80
2023/04/29 07:07:55;;;;;;;5.63;2.08;;;;;;;;;;5034606;28;19912;-80
2023/04/29 07:10:20;;;;;;;;;;;;;;;;;;5051619;28;20036;-80
2023/04/29 07:12:46;;;;;;;4.53;2.00;;;;;;;;;;5050251;28;19955;-81
2023/04/29 07:15:11;;;;;;;;;;;;;;;;;;5034651;28;20044;-81
2023/04/29 07:17:37;;;;;;;3.40;1.70;;;;;;;;;;5050926;28;19955;-80
2023/04/29 07:20:03;;;;;;;;;;;;;;;;;;5032307;28;20488;-80
2023/04/29 07:22:28;;;;;;;5.40;1.77;;;;;;;;;;5046994;28;20290;-81
2023/04/29 07:24:54;;;;;;;;;;;;;;;;;;5035334;28;20119;-81
2023/04/29 07:27:20;;;;;;;3.38;1.30;;;;;;;;;;5051102;28;19909;-80
2023/04/29 07:29:45;;;;;;;;;;;;;;;;;;5051580;28;20028;-80
2023/04/29 07:32:11;;;;;;;5.80;1.50;;;;;;;;;;5052625;28;19915;-81
2023/04/29 07:34:37;;;;;;;7.35;1.75;;;;;;;;;;5036478;28;20068;-80
2023/04/29 07:37:02;;;;;;;3.72;1.80;;;;;;;;;;5048994;28;20068;-80
2023/04/29 07:39:29;;;;;;;;;;;;;;;;;;5037765;28;20488;-80
2023/04/29 07:41:55;;;;;;;5.55;1.30;;;;;;;;;;5056871;28;19919;-81
2023/04/29 07:44:21;;;;;;;3.08;1.10;;;;;;;;;;5045085;28;20044;-80
2023/04/29 07:46:47;;;;;;;2.53;1.33;;;;;;;;;;5040875;28;20176;-80
2023/04/29 07:49:12;;;;;;;3.33;1.50;;;;;;;;;;5061373;28;20120;-81
2023/04/29 07:51:41;;;;;;;2.33;1.20;;;;;;;;;;5034244;28;20479;-80
2023/04/29 07:54:09;;;;;;;5.15;2.40;;;;;;;;;;5067235;28;20137;-80
2023/04/29 07:56:35;;;;;;;5.25;1.73;;;;;;;;;;5058286;28;20064;-80
2023/04/29 07:59:00;;;;;;;3.00;1.30;;;;;;;;;;5043541;28;20217;-80
2023/04/29 08:01:27;;;;;;;2.22;1.27;;;;;;;;;;5048357;28;20150;-80
2023/04/29 08:03:53;;;;;;;2.88;1.30;;;;;;;;;;5038005;28;20041;-80
2023/04/29 08:06:21;;;;;;;4.70;1.70;;;;;;;;;;5056508;28;20118;-79
2023/04/29 08:08:50;;;;;;;2.38;1.30;;;;;;;;;;5054901;28;20032;-79
2023/04/29 08:11:17;;;;;;;4.55;1.60;;;;;;;;;;5036127;28;20024;-80
2023/04/29 08:13:43;;;;;;;3.58;1.50;;;;;;;;;;5056557;28;20059;-80
2023/04/29 08:16:08;;;;;;;1.67;1.00;;;;;;;;;;5037165;28;20037;-80
2023/04/29 08:18:35;;;;;;;3.08;1.08;;;;;;;;;;5058530;28;20078;-80
2023/04/29 08:21:01;;;;;;;2.45;1.40;;;;;;;;;;5032173;28;20024;-80
2023/04/29 08:23:26;;;;;;;1.95;1.10;;;;;;;;;;5060076;28;20402;-80
2023/04/29 08:25:54;;;;;;;2.92;1.40;;;;;;;;;;5057782;28;20078;-81
2023/04/29 08:28:19;;;;;;;3.17;1.08;;;;;;;;;;5061320;28;20035;-80
2023/04/29 08:30:45;;;;;;;1.90;1.10;;;;;;;;;;5054563;28;20028;-80
2023/04/29 08:33:11;;;;;;;6.10;1.20;;;;;;;;;;5058532;28;20032;-79
2023/04/29 08:35:37;;;;;;;2.92;1.52;;;;;;;;;;5060930;28;20067;-79
2023/04/29 08:38:04;;;;;;;4.28;1.70;;;;;;;;;;5048864;28;20435;-79
2023/04/29 08:40:30;;;;;;;3.95;1.20;;;;;;;;;;5049607;28;20025;-79
2023/04/29 08:42:56;;;;;;;3.55;1.13;;;;;;;;;;5048812;28;20065;-80
2023/04/29 08:45:21;;;;;;;3.78;1.13;;;;;;;;;;5048993;28;20052;-81
2023/04/29 08:47:48;;;;;;;2.80;1.10;;;;;;;;;;5050559;28;20036;-81
2023/04/29 08:50:13;;;;;;;2.45;1.38;;;;;;;;;;5048897;28;20116;-81
2023/04/29 08:52:39;;;;;;;5.03;1.60;;;;;;;;;;5032200;28;20116;-81
2023/04/29 08:55:05;;;;;;;3.15;1.10;;;;;;;;;;5049050;28;20115;-81
2023/04/29 08:57:31;;;;;;;3.70;1.10;;;;;;;;;;5048675;28;20103;-81
2023/04/29 08:59:58;;;;;;;3.53;1.20;;;;;;;;;;5032747;28;20174;-81
2023/04/29 09:02:23;;;;;;;1.30;0.90;;;;;;;;;;5033520;28;20037;-80
2023/04/29 09:04:55;;;;;;;2.72;0.90;;;;;;;;;;5050312;28;20028;-81
2023/04/29 09:07:21;;;;;;;3.85;1.38;;;;;;;;;;5033393;28;20136;-80
2023/04/29 09:09:46;;;;;;;2.88;0.90;;;;;;;;;;5051154;28;20420;-80
2023/04/29 09:12:12;;;;;;;2.60;0.90;;;;;;;;;;5048919;28;20080;-81
2023/04/29 09:14:37;;;;;;;2.67;0.90;;;;;;;;;;5051376;28;20084;-80
2023/04/29 09:17:03;;;;;;;1.73;1.00;;;;;;;;;;5050782;28;20037;-81
2023/04/29 09:19:29;;;;;;;3.25;1.20;;;;;;;;;;5033071;28;20033;-81
2023/04/29 09:21:55;;;;;;;2.00;1.20;;;;;;;;;;5032903;28;20471;-81
2023/04/29 09:24:24;;;;;;;2.28;0.90;;;;;;;;;;5033805;28;20040;-81
2023/04/29 09:26:49;;;;;;;1.98;1.00;;;;;;;;;;5050785;28;20455;-81
2023/04/29 09:29:17;;;;;;;3.72;1.40;;;;;;;;;;5032398;28;20024;-80
2023/04/29 09:31:42;;;;;;;4.13;1.80;;;;;;;;;;5035004;28;20098;-81
2023/04/29 09:34:08;;;;;;;3.25;1.10;;;;;;;;;;5046151;28;20115;-81
2023/04/29 09:36:39;;;;;;;2.85;1.00;;;;;;;;;;5032164;28;20044;-81
2023/04/29 09:39:10;;;;;;;2.22;0.80;;;;;;;;;;5032775;28;20037;-81
2023/04/29 09:41:36;;;;;;;2.13;0.90;;;;;;;;;;5049313;28;20040;-82
2023/04/29 09:44:05;;;;;;;1.95;1.00;;;;;;;;;;5049449;28;20037;-81
2023/04/29 09:46:32;;;;;;;1.85;1.00;;;;;;;;;;5033142;28;20040;-81
2023/04/29 09:48:57;;;;;;;2.13;1.20;;;;;;;;;;5050105;28;20492;-81
2023/04/29 09:51:23;;;;;;;3.22;1.05;;;;;;;;;;5033997;28;20025;-80
2023/04/29 09:53:49;;;;;;;1.73;0.90;;;;;;;;;;5036916;28;20450;-80
2023/04/29 09:56:15;;;;;;;4.38;1.10;;;;;;;;;;5033096;28;20124;-79
2023/04/29 09:58:40;;;;;;;2.38;1.10;;;;;;;;;;5051559;28;20025;-81
2023/04/29 10:01:06;;;;;;;3.85;0.93;;;;;;;;;;5052498;28;20028;-81
2023/04/29 10:03:33;;;;;;;2.97;1.00;;;;;;;;;;5053252;28;20407;-81
2023/04/29 10:05:59;;;;;;;3.45;1.05;;;;;;;;;;5052985;28;20082;-81
2023/04/29 10:08:25;;;;;;;4.00;1.98;;;;;;;;;;5036015;28;20047;-80
2023/04/29 10:10:56;;;;;;;2.65;1.10;;;;;;;;;;5052407;28;20104;-80
2023/04/29 10:13:28;;;;;;;1.70;0.80;;;;;;;;;;5035996;28;20471;-81
2023/04/29 10:15:57;;;;;;;4.07;2.42;;;;;;;;;;5052724;28;20395;-80
2023/04/29 10:18:29;;;;;;;3.85;1.30;;;;;;;;;;5052129;28;20037;-80
2023/04/29 10:20:55;;;;;;;1.90;1.02;;;;;;;;;;5053853;28;20621;-79
2023/04/29 10:23:21;;;;;;;3.67;1.15;;;;;;;;;;5035553;28;20083;-79
2023/04/29 10:25:46;;;;;;;2.63;1.27;;;;;;;;;;5037426;28;20043;-80
2023/04/29 10:28:15;;;;;;;2.70;0.93;;;;;;;;;;5053823;28;20035;-82
2023/04/29 10:30:41;;;;;;;2.25;1.00;;;;;;;;;;5036010;28;20025;-80
2023/04/29 10:33:07;;;;;;;3.33;1.13;;;;;;;;;;5019869;28;20029;-80
2023/04/29 10:35:33;;;;;;;2.80;0.98;;;;;;;;;;5053192;28;20086;-80
2023/04/29 10:37:59;;;;;;;2.40;1.10;;;;;;;;;;5036354;28;20052;-80
2023/04/29 10:40:30;;;;;;;1.40;0.80;;;;;;;;;;5053299;28;20452;-80
2023/04/29 10:42:56;;;;;;;1.27;0.80;;;;;;;;;;5041112;28;20063;-80
2023/04/29 10:45:22;;;;;;;2.75;0.80;;;;;;;;;;5050068;28;20057;-81
2023/04/29 10:48:07;;;;;;;2.50;0.82;;;;;;;;;;5034824;28;20029;-81
2023/04/29 10:50:38;;;;;;;1.50;0.80;;;;;;;;;;5052313;28;20037;-81
2023/04/29 10:53:04;;;;;;;1.88;0.90;;;;;;;;;;5050720;28;20033;-80
2023/04/29 10:55:30;;;;;;;2.60;1.27;;;;;;;;;;5034820;28;20025;-81
2023/04/29 10:57:56;;;;;;;2.85;1.20;;;;;;;;;;5051259;28;20041;-81
2023/04/29 11:00:28;;;;;;;2.92;1.10;;;;;;;;;;5034790;28;20594;-81
2023/04/29 11:02:54;;;;;;;2.00;1.02;;;;;;;;;;5050423;28;20021;-80
2023/04/29 11:05:35;;;;;;;1.77;1.00;;;;;;;;;;5051089;28;20388;-81
2023/04/29 11:08:11;;;;;;;2.53;1.02;;;;;;;;;;5052218;28;20458;-81
2023/04/29 11:10:40;;;;;;;6.05;1.05;;;;;;;;;;5051458;28;20083;-81
2023/04/29 11:13:25;;;;;;;2.00;1.08;;;;;;;;;;5051907;28;20095;-81
2023/04/29 11:15:51;;;;;;;4.70;1.27;;;;;;;;;;5052649;28;20036;-81
2023/04/29 11:18:16;;;;;;;2.90;1.00;;;;;;;;;;5048424;28;20045;-81
2023/04/29 11:21:01;;;;;;;4.32;1.20;;;;;;;;;;5034241;28;20051;-81
2023/04/29 11:23:26;;;;;;;4.32;1.10;;;;;;;;;;5050022;28;20056;-81
2023/04/29 11:25:51;;;;;;;2.45;1.40;;;;;;;;;;5034254;28;20064;-80
2023/04/29 11:28:17;;;;;;;4.30;1.38;;;;;;;;;;5051634;28;20071;-80
2023/04/29 11:30:42;;;;;;;2.55;1.02;;;;;;;;;;5033685;28;21098;-80
2023/04/29 11:33:08;;;;;;;2.78;1.05;;;;;;;;;;5033944;28;20048;-81
2023/04/29 11:35:33;;;;;;;4.40;0.90;;;;;;;;;;5052153;28;20499;-80
2023/04/29 11:37:59;;;;;;;1.13;0.77;;;;;;;;;;5051844;28;20502;-80
2023/04/29 11:40:24;;;;;;;1.73;0.80;;;;;;;;;;5050249;28;20036;-80
2023/04/29 11:42:50;;;;;;;5.18;1.58;;;;;;;;;;5030364;28;20040;-81
2023/04/29 11:45:18;;;;;;;4.00;1.08;;;;;;;;;;5045184;28;20475;-80
2023/04/29 11:47:45;;;;;;;2.60;0.82;;;;;;;;;;5033069;28;20094;-79
2023/04/29 11:50:10;;;;;;;2.88;0.80;;;;;;;;;;5015607;28;20060;-80
2023/04/29 11:52:37;;;;;;;2.67;1.00;;;;;;;;;;5049802;28;20517;-81
2023/04/29 11:55:02;;;;;;;1.83;0.90;;;;;;;;;;5050147;28;20060;-80
2023/04/29 11:57:28;;;;;;;1.90;0.80;;;;;;;;;;5049069;28;20060;-80
2023/04/29 11:59:54;;;;;;;1.90;0.73;;;;;;;;;;5033159;28;20502;-80
2023/04/29 12:02:30;;;;;;;3.85;1.08;;;;;;;;;;5049498;28;20029;-80
2023/04/29 12:04:56;;;;;;;;;;;;;;;;;;5049400;28;20159;-81
2023/04/29 12:07:22;;;;;;;4.38;1.00;;;;;;;;;;5033075;28;20422;-79
2023/04/29 12:09:48;;;;;;;2.97;1.00;;;;;;;;;;5049272;28;20061;-79
2023/04/29 12:12:13;;;;;;;3.25;0.90;;;;;;;;;;5050970;28;20032;-79
2023/04/29 12:14:39;;;;;;;4.82;1.20;;;;;;;;;;5031377;28;20099;-79
2023/04/29 12:17:04;;;;;;;3.17;1.20;;;;;;;;;;5049274;28;20037;-79
2023/04/29 12:19:30;;;;;;;4.22;1.10;;;;;;;;;;5049358;28;20036;-80
2023/04/29 12:21:59;;;;;;;5.82;1.50;;;;;;;;;;5033602;28;20061;-80
2023/04/29 12:24:24;;;;;;;4.85;0.90;;;;;;;;;;5033024;28;20125;-80
2023/04/29 12:26:50;;;;;;;2.22;1.00;;;;;;;;;;5049679;28;20116;-80
2023/04/29 12:29:15;;;;;;;3.53;0.90;;;;;;;;;;5049328;28;20036;-80
2023/04/29 12:31:42;;;;;;;3.35;1.10;;;;;;;;;;5031870;28;20399;-80
2023/04/29 12:34:07;;;;;;;2.03;0.90;;;;;;;;;;5050707;28;20507;-79
2023/04/29 12:36:33;;;;;;;3.15;0.80;;;;;;;;;;5049493;28;20499;-80
2023/04/29 12:39:00;;;;;;;2.85;1.23;;;;;;;;;;5032499;28;20504;-79
2023/04/29 12:41:37;;;;;;;3.72;1.35;;;;;;;;;;5048396;28;20101;-80
2023/04/29 12:44:03;;;;;;;1.63;0.70;;;;;;;;;;5050857;28;20036;-80
2023/04/29 12:46:33;;;;;;;1.58;0.90;;;;;;;;;;5051141;28;20036;-80
2023/04/29 12:48:59;;;;;;;3.13;0.95;;;;;;;;;;5049250;28;20044;-80
2023/04/29 12:51:25;;;;;;;2.05;1.00;;;;;;;;;;5048785;28;20108;-80
2023/04/29 12:53:51;;;;;;;3.63;1.00;;;;;;;;;;5048973;28;20506;-80
2023/04/29 12:56:17;;;;;;;1.90;0.90;;;;;;;;;;5049813;28;20119;-79
2023/04/29 12:58:42;;;;;;;2.65;1.27;;;;;;;;;;5048486;28;20044;-80
2023/04/29 13:01:08;;;;;;;5.97;1.45;;;;;;;;;;5059481;28;20032;-81
2023/04/29 13:03:34;;;;;;;8.85;1.88;;;;;;;;;;5049389;28;20035;-80
2023/04/29 13:06:01;;;;;;;3.03;1.52;;;;;;;;;;5064943;28;20094;-81
2023/04/29 13:08:26;;;;;;;2.97;1.70;;;;;;;;;;5069325;28;20032;-80
2023/04/29 13:10:52;;;;;;;4.75;1.33;;;;;;;;;;5065056;28;20033;-80
2023/04/29 13:13:18;;;;;;;4.93;1.42;;;;;;;;;;5044767;28;20032;-80
2023/04/29 13:15:43;;;;;;;3.97;1.30;;;;;;;;;;5047169;28;20178;-81
2023/04/29 13:18:09;;;;;;;2.45;1.30;;;;;;;;;;5066287;28;20029;-81
2023/04/29 13:20:35;;;;;;;2.33;1.10;;;;;;;;;;5064878;28;20029;-81
2023/04/29 13:23:00;;;;;;;3.53;0.95;;;;;;;;;;5049195;28;20033;-80
2023/04/29 13:25:26;;;;;;;3.45;1.63;;;;;;;;;;5066698;28;20398;-79
2023/04/29 13:27:51;;;;;;;4.15;1.20;;;;;;;;;;5071794;28;20051;-79
2023/04/29 13:30:16;;;;;;;2.08;1.10;;;;;;;;;;5058592;28;20108;-80
2023/04/29 13:32:43;;;;;;;2.10;0.70;;;;;;;;;;5043336;28;20120;-79
2023/04/29 13:35:08;;;;;;;3.03;1.25;;;;;;;;;;5026577;28;20119;-79
2023/04/29 13:37:34;;;;;;;2.60;0.98;;;;;;;;;;5054475;28;20120;-79
2023/04/29 13:39:59;;;;;;;3.47;1.00;;;;;;;;;;5054376;28;20033;-79
2023/04/29 13:42:25;;;;;;;2.33;1.02;;;;;;;;;;5058584;28;20051;-80
2023/04/29 13:44:52;;;;;;;1.92;1.00;;;;;;;;;;5055702;28;20120;-80
2023/04/29 13:47:18;;;;;;;2.15;0.85;;;;;;;;;;5057901;28;20487;-80
2023/04/29 13:49:43;;;;;;;2.97;1.10;;;;;;;;;;5054313;28;20112;-80
2023/04/29 13:52:09;;;;;;;1.63;0.90;;;;;;;;;;5056687;28;20147;-80
2023/04/29 13:54:35;;;;;;;2.42;1.00;;;;;;;;;;5055349;28;20438;-79
2023/04/29 13:57:02;;;;;;;3.38;1.20;;;;;;;;;;5056020;28;20059;-81
2023/04/29 13:59:28;;;;;;;4.20;1.08;;;;;;;;;;5035136;28;20488;-81
2023/04/29 14:01:54;;;;;;;2.80;0.95;;;;;;;;;;5056824;28;20051;-79
2023/04/29 14:04:20;;;;;;;4.97;1.00;;;;;;;;;;5054817;28;20111;-79
2023/04/29 14:06:45;;;;;;;3.85;1.05;;;;;;;;;;5056609;28;20058;-79
2023/04/29 14:09:11;;;;;;;2.00;0.90;;;;;;;;;;5055597;28;20021;-79
2023/04/29 14:11:36;;;;;;;3.67;1.20;;;;;;;;;;5033315;28;20132;-80
2023/04/29 14:14:02;;;;;;;1.80;1.02;;;;;;;;;;5035202;28;20056;-80
2023/04/29 14:16:28;;;;;;;3.00;1.00;;;;;;;;;;5058459;28;20036;-81
2023/04/29 14:18:54;;;;;;;4.20;0.90;;;;;;;;;;5056367;28;20423;-80
2023/04/29 14:21:21;;;;;;;2.83;1.05;;;;;;;;;;5041809;28;20032;-80
2023/04/29 14:23:47;;;;;;;6.40;1.40;;;;;;;;;;5035229;28;20503;-80
2023/04/29 14:26:12;;;;;;;1.92;0.90;;;;;;;;;;5050614;28;20060;-80
2023/04/29 14:28:38;;;;;;;3.50;1.15;;;;;;;;;;5035169;28;20054;-79
2023/04/29 14:31:03;;;;;;;5.03;1.20;;;;;;;;;;5053059;28;20025;-80
2023/04/29 14:33:29;;;;;;;5.60;1.20;;;;;;;;;;5052473;28;20035;-80
2023/04/29 14:35:54;;;;;;;3.75;1.00;;;;;;;;;;5053271;28;20048;-80
2023/04/29 14:38:20;;;;;;;3.10;0.93;;;;;;;;;;5035338;28;20037;-79
2023/04/29 14:40:46;;;;;;;3.55;1.10;;;;;;;;;;5052431;28;20467;-80
2023/04/29 14:43:11;;;;;;;2.85;1.08;;;;;;;;;;5052431;28;20036;-80
2023/04/29 14:45:37;;;;;;;2.55;0.98;;;;;;;;;;5051763;28;20512;-80
2023/04/29 14:48:03;;;;;;;1.90;0.90;;;;;;;;;;5052421;28;20052;-79
2023/04/29 14:50:29;;;;;;;3.63;1.02;;;;;;;;;;5053358;28;20083;-80
2023/04/29 14:52:56;;;;;;;3.70;0.95;;;;;;;;;;5034332;28;20441;-80
2023/04/29 14:55:22;;;;;;;3.63;0.80;;;;;;;;;;5054605;28;20037;-80
2023/04/29 14:57:47;;;;;;;3.63;1.00;;;;;;;;;;5053838;28;20443;-79
2023/04/29 15:00:13;;;;;;;5.35;0.90;;;;;;;;;;5054477;28;20033;-80
2023/04/29 15:02:39;;;;;;;2.50;1.00;;;;;;;;;;5054365;28;20021;-80